Latest Weather Observations for Bega

IDN60801

Issued at 10:03 pm EST Thursday 7 May 2026 (issued every 10 minutes, with the page automatically refreshed every 10 minutes)

About weather observations | Map of weather stations | Latest weather observations for NSW | Other Formats
Station Details ID: 069139 Name: BEGA AWS Lat: -36.67 Lon: 149.82 Height: 41.0 m
Data from the previous 72 hours. | See also: Recent months at Bega
Date/Time
EST
Temp
°C
App
Temp
°C
Dew
Point
°C
Rel
Hum
%
Delta-T
°C
Wind Press
QNH
hPa
Press
MSL
hPa
Rain since
9am
mm
Dir  Spd
km/h
Gust
km/h
Spd
kts
Gust
kts
07/10:00pm 10.8 5.3 2.1 55 3.7 SW 20 33 11 18 1017.7 1017.7 0.2
07/09:30pm 10.8 4.6 1.9 54 3.8 WSW 24 39 13 21 1017.8 1017.8 0.2
07/09:00pm 11.2 4.1 1.5 51 4.1 WSW 28 41 15 22 1017.5 1017.5 0.2
07/08:30pm 11.0 3.5 1.0 50 4.2 WSW 30 50 16 27 1017.4 1017.4 0.2
07/08:00pm 11.1 3.9 0.8 49 4.3 WSW 28 46 15 25 1017.1 1017.1 0.2
07/07:54pm 11.0 3.8 0.4 48 4.3 WSW 28 46 15 25 1017.0 1017.0 0.2
07/07:30pm 10.7 3.8 -0.1 47 4.4 WSW 26 44 14 24 1017.1 1017.1 0.2
07/07:10pm 11.0 3.7 0.1 47 4.4 WSW 28 50 15 27 1017.0 1017.0 0.2
07/07:00pm 10.7 4.9 -0.1 47 4.4 WSW 20 37 11 20 1017.1 1017.1 0.2
07/06:30pm 10.9 3.6 -0.2 46 4.5 WSW 28 50 15 27 1017.1 1017.1 0.2
07/06:23pm 11.0 3.7 -0.2 46 4.5 WSW 28 50 15 27 1017.1 1017.1 0.2
07/06:00pm 10.2 5.8 0.3 50 4.0 WSW 13 24 7 13 1017.2 1017.2 0.2
07/05:30pm 10.7 5.5 0.2 48 4.3 SW 17 30 9 16 1017.0 1017.0 0.2
07/05:00pm 11.3 4.4 0.1 46 4.6 SW 26 41 14 22 1016.5 1016.5 0.2
07/04:30pm 12.0 4.3 -0.2 43 5.0 SW 30 44 16 24 1015.9 1015.9 0.2
07/04:00pm 12.8 4.7 -0.1 41 5.3 WSW 32 50 17 27 1015.4 1015.5 0.2
07/03:30pm 13.3 3.9 0.0 40 5.5 WSW 39 61 21 33 1015.2 1015.3 0.2
07/03:00pm 13.2 4.6 0.3 41 5.4 SW 35 56 19 30 1015.1 1015.2 0.0
07/02:44pm 13.5 6.4 1.2 43 5.3 WSW 28 46 15 25 1014.8 1014.9 0.0
07/02:30pm 12.7 5.2 1.4 46 4.8 WSW 30 43 16 23 1014.7 1014.8 0.0
07/02:00pm 12.5 4.7 1.5 47 4.7 WSW 32 54 17 29 1014.3 1014.4 0.0
07/01:30pm 12.1 4.7 2.0 50 4.3 SW 30 48 16 26 1014.4 1014.5 0.0
07/01:23pm 12.0 4.6 1.6 49 4.4 WSW 30 48 16 26 1014.3 1014.4 0.0
07/01:00pm 11.8 4.5 2.3 52 4.1 WSW 30 43 16 23 1014.1 1014.2 0.0
07/12:32pm 12.3 4.9 1.9 49 4.5 WSW 30 48 16 26 1014.3 1014.4 0.0
07/12:30pm 12.5 4.8 2.1 49 4.5 WSW 32 57 17 31 1014.3 1014.4 0.0
07/12:00pm 12.4 5.4 1.7 48 4.6 WSW 28 50 15 27 1014.4 1014.5 0.0
07/11:33am 12.6 4.7 2.2 49 4.5 SW 33 56 18 30 1014.4 1014.5 0.0
07/11:30am 12.3 4.4 1.3 47 4.7 SW 32 56 17 30 1014.2 1014.3 0.0
07/11:00am 12.0 4.3 2.2 51 4.2 WSW 32 50 17 27 1013.7 1013.8 0.0
07/10:30am 10.6 2.6 1.7 54 3.7 WSW 33 59 18 32 1013.8 1013.9 0.0
07/10:00am 11.2 4.1 1.5 51 4.1 WSW 28 52 15 28 1014.0 1014.1 0.0
07/09:57am 11.2 4.2 2.0 53 3.9 WSW 28 52 15 28 1014.1 1014.2 0.0
07/09:30am 10.6 5.1 1.7 54 3.7 WSW 20 33 11 18 1014.0 1014.1 0.0
07/09:00am 9.8 5.2 1.7 57 3.4 WSW 15 20 8 11 1014.2 1014.3 0.2
07/08:30am 9.6 4.2 2.5 61 3.0 WSW 20 33 11 18 1014.0 1014.1 0.2
07/08:00am 8.7 4.7 2.9 67 2.5 WSW 13 20 7 11 1014.2 1014.3 0.2
07/07:30am 8.3 2.9 2.5 67 2.4 WSW 20 33 11 18 1014.3 1014.4 0.2
07/07:00am 8.0 2.8 3.3 72 2.0 WSW 20 32 11 17 1014.3 1014.4 0.2
07/06:30am 7.8 2.8 4.6 80 1.4 WSW 20 32 11 17 1013.7 1013.8 0.2
07/06:00am 8.9 3.3 5.6 80 1.5 SW 24 33 13 18 1013.0 1013.0 0.0
07/05:32am 10.3 4.0 5.5 72 2.2 SW 28 46 15 25 1012.1 1012.1 0.0
07/05:30am 10.4 4.9 6.0 74 2.0 SW 24 41 13 22 1012.0 1012.0 0.0
07/05:00am 8.0 4.8 5.1 82 1.3 SSW 11 15 6 8 1011.5 1011.5 0.0
07/04:30am 7.4 5.0 4.4 81 1.3 E 6 7 3 4 1011.0 1011.0 0.0
07/04:00am 9.3 6.3 6.0 80 1.5 SW 11 20 6 11 1010.9 1010.9 0.0
07/03:30am 7.6 6.5 5.2 85 1.1 CALM 0 0 0 0 1011.0 1011.0 0.0
07/03:00am 8.1 6.2 4.7 79 1.5 NW 4 9 2 5 1010.9 1010.9 0.0
07/02:30am 11.7 9.8 4.7 62 3.2 SW 4 7 2 4 1011.1 1011.1 0.0
07/02:00am 12.6 10.2 5.3 61 3.4 WSW 7 11 4 6 1011.2 1011.2 0.0
07/01:30am 11.2 8.5 5.7 69 2.6 SSW 9 19 5 10 1012.0 1012.0 0.0
07/01:00am 9.2 7.3 9.1 99 0.0 S 9 15 5 8 1012.0 1012.0 0.0
07/12:30am 7.6 6.6 7.5 99 0.0 NE 2 7 1 4 1012.2 1012.2 0.0
07/12:00am 6.5 5.3 6.4 99 0.0 N 2 7 1 4 1012.0 1012.0 0.0
 
Date/Time
EST
Temp
°C
App
Temp
°C
Dew
Point
°C
Rel
Hum
%
Delta-T
°C
Wind Press
QNH
hPa
Press
MSL
hPa
Rain since
9am
mm
Dir  Spd
km/h
Gust
km/h
Spd
kts
Gust
kts
06/11:30pm 6.9 6.2 6.8 99 0.0 CALM 0 0 0 0 1012.1 1012.1 0.0
06/11:00pm 7.2 6.5 7.1 99 0.0 CALM 0 6 0 3 1012.1 1012.1 0.0
06/10:30pm 9.5 9.4 9.4 99 0.0 CALM 0 0 0 0 1012.5 1012.5 0.0
06/10:00pm 10.0 10.0 9.9 99 0.1 CALM 0 0 0 0 1012.9 1012.9 0.0
06/09:30pm 9.3 8.0 9.2 99 0.0 ESE 6 11 3 6 1013.0 1013.0 0.0
06/09:00pm 10.9 11.1 10.7 99 0.1 CALM 0 0 0 0 1013.3 1013.3 0.0
06/08:30pm 11.2 10.4 11.0 99 0.1 NNE 6 9 3 5 1013.3 1013.3 0.0
06/08:00pm 11.4 11.0 11.1 98 0.2 SSW 4 7 2 4 1013.4 1013.4 0.0
06/07:30pm 12.0 12.1 11.4 96 0.3 S 2 7 1 4 1013.4 1013.4 0.0
06/07:00pm 12.2 11.4 10.9 92 0.7 SSW 6 7 3 4 1013.7 1013.8 0.0
06/06:30pm 13.9 14.5 11.8 87 1.1 CALM 0 0 0 0 1013.8 1013.9 0.0
06/06:00pm 15.1 15.5 12.6 85 1.4 NW 2 6 1 3 1013.7 1013.8 0.0
06/05:30pm 15.8 16.6 12.4 80 1.9 CALM 0 0 0 0 1013.7 1013.8 0.0
06/05:00pm 16.7 16.8 12.7 77 2.2 NE 4 7 2 4 1013.9 1014.0 0.0
06/04:30pm 17.5 16.7 12.8 74 2.6 ENE 9 13 5 7 1014.1 1014.2 0.0
06/04:00pm 18.5 17.7 12.9 70 3.1 ENE 9 13 5 7 1014.3 1014.4 0.0
06/03:30pm 19.2 18.0 12.9 67 3.6 E 11 17 6 9 1014.6 1014.7 0.0
06/03:00pm 19.4 17.8 12.7 65 3.8 ENE 13 17 7 9 1014.9 1015.0 0.0
06/02:30pm 19.6 18.0 12.8 65 3.8 NE 13 19 7 10 1015.2 1015.3 0.0
06/02:00pm 19.4 17.1 11.9 62 4.2 ENE 15 20 8 11 1015.8 1015.8 0.0
06/01:30pm 20.0 18.3 12.5 62 4.2 ENE 13 17 7 9 1016.3 1016.3 0.0
06/01:00pm 19.4 17.8 11.4 60 4.4 E 11 17 6 9 1016.8 1016.8 0.0
06/12:30pm 19.0 17.8 11.6 62 4.1 ESE 9 17 5 9 1017.5 1017.5 0.0
06/12:00pm 19.0 18.1 12.5 66 3.6 ENE 9 13 5 7 1018.3 1018.3 0.0
06/11:30am 18.0 17.0 11.1 64 3.7 NE 7 11 4 6 1019.2 1019.2 0.0
06/11:00am 17.0 16.1 10.8 67 3.3 NE 6 7 3 4 1019.8 1019.8 0.0
06/10:30am 14.7 14.6 10.9 78 2.0 ENE 2 6 1 3 1020.3 1020.3 0.0
06/10:00am 11.7 12.2 11.5 99 0.1 CALM 0 0 0 0 1020.8 1020.8 0.0
06/09:30am 10.2 9.9 10.2 100 0.0 SSE 2 6 1 3 1021.2 1021.2 0.0
06/09:00am 8.5 7.8 8.5 100 0.0 S 2 6 1 3 1021.4 1021.4 0.0
06/08:30am 6.7 4.8 6.7 100 0.0 SSW 6 7 3 4 1021.5 1021.5 0.0
06/08:00am 5.3 4.2 5.2 99 0.0 CALM 0 0 0 0 1021.4 1021.4 0.0
06/07:30am 4.3 3.0 4.2 99 0.0 CALM 0 0 0 0 1021.4 1021.4 0.0
06/07:00am 4.2 2.9 4.1 99 0.0 CALM 0 0 0 0 1021.2 1021.2 0.0
06/06:30am 4.0 2.7 3.9 99 0.0 CALM 0 0 0 0 1021.1 1021.1 0.0
06/06:00am 4.1 2.8 4.0 99 0.0 CALM 0 0 0 0 1021.1 1021.1 0.0
06/05:30am 4.4 3.1 4.3 99 0.0 CALM 0 0 0 0 1021.0 1021.0 0.0
06/05:00am 5.1 4.0 5.0 99 0.0 CALM 0 0 0 0 1020.8 1020.8 0.0
06/04:30am 5.1 4.0 5.0 99 0.0 CALM 0 0 0 0 1020.7 1020.7 0.0
06/04:00am 4.8 3.6 4.7 99 0.0 CALM 0 0 0 0 1020.7 1020.7 0.0
06/03:30am 5.9 4.9 5.8 99 0.0 CALM 0 6 0 3 1020.8 1020.8 0.0
06/03:00am 6.2 5.3 6.1 99 0.0 CALM 0 0 0 0 1020.9 1020.9 0.0
06/02:30am 6.6 5.8 6.5 99 0.0 CALM 0 0 0 0 1021.1 1021.1 0.0
06/02:00am 7.2 6.5 7.1 99 0.0 CALM 0 0 0 0 1021.2 1021.2 0.0
06/01:30am 7.3 6.7 7.2 99 0.0 CALM 0 0 0 0 1021.4 1021.4 0.0
06/01:00am 7.7 7.1 7.6 99 0.0 CALM 0 0 0 0 1021.6 1021.6 0.0
06/12:30am 7.7 7.1 7.6 99 0.0 CALM 0 0 0 0 1021.7 1021.7 0.0
06/12:00am 7.9 7.4 7.8 99 0.0 CALM 0 0 0 0 1021.8 1021.8 0.0
 
Date/Time
EST
Temp
°C
App
Temp
°C
Dew
Point
°C
Rel
Hum
%
Delta-T
°C
Wind Press
QNH
hPa
Press
MSL
hPa
Rain since
9am
mm
Dir  Spd
km/h
Gust
km/h
Spd
kts
Gust
kts
05/11:30pm 8.3 7.8 8.0 98 0.1 CALM 0 0 0 0 1021.8 1021.8 0.0
05/11:00pm 8.9 8.6 8.5 97 0.2 CALM 0 0 0 0 1021.8 1021.8 0.0
05/10:30pm 8.9 8.5 8.3 96 0.3 CALM 0 0 0 0 1021.9 1021.9 0.0
05/10:00pm 9.3 8.9 8.4 94 0.4 CALM 0 0 0 0 1021.9 1021.9 0.0
05/09:30pm 9.8 9.5 8.7 93 0.5 CALM 0 0 0 0 1021.8 1021.8 0.0
05/09:00pm 10.2 9.9 8.5 89 0.8 CALM 0 0 0 0 1021.7 1021.7 0.0
05/08:30pm 10.7 10.4 8.5 86 1.1 CALM 0 0 0 0 1021.4 1021.4 0.0
05/08:00pm 12.6 12.5 9.4 81 1.6 CALM 0 0 0 0 1021.1 1021.1 0.0
05/07:30pm 11.5 10.2 9.2 86 1.2 SSW 6 7 3 4 1020.8 1020.8 0.0
05/07:00pm 13.5 12.1 8.8 73 2.4 NW 6 9 3 5 1020.3 1020.3 0.0
05/06:30pm 15.3 12.7 9.2 67 3.1 NW 13 13 7 7 1019.9 1019.9 0.0
05/06:00pm 16.0 13.9 9.7 66 3.3 NNW 11 13 6 7 1019.4 1019.4 0.0
05/05:30pm 16.3 14.6 9.7 65 3.5 N 9 13 5 7 1019.0 1019.0 0.0
05/05:00pm 16.7 15.3 9.4 62 3.8 N 7 11 4 6 1018.4 1018.4 0.0
05/04:30pm 17.6 16.3 9.8 60 4.1 NE 7 11 4 6 1018.0 1018.0 0.0
05/04:00pm 18.6 17.2 9.7 56 4.7 ENE 7 11 4 6 1017.6 1017.6 0.0
05/03:30pm 19.0 16.4 9.2 53 5.2 E 13 20 7 11 1017.2 1017.2 0.0
05/03:00pm 21.0 17.2 9.9 49 6.0 ESE 20 28 11 15 1016.7 1016.7 0.0
05/02:30pm 23.0 20.7 7.5 37 8.1 WSW 9 13 5 7 1016.2 1016.2 0.0
05/02:00pm 23.2 21.2 8.5 39 7.8 SW 9 17 5 9 1015.8 1015.8 0.0
05/01:30pm 22.0 18.8 6.7 37 7.8 SW 13 20 7 11 1015.8 1015.8 0.0
05/01:00pm 21.7 17.3 7.2 39 7.5 WSW 20 28 11 15 1015.9 1015.9 0.0
05/12:30pm 22.3 19.6 7.3 38 7.8 W 11 20 6 11 1016.0 1016.0 0.0
05/12:00pm 21.9 18.9 7.7 40 7.4 W 13 22 7 12 1016.5 1016.5 0.0
05/11:30am 20.9 18.8 8.2 44 6.6 WSW 9 19 5 10 1016.6 1016.6 0.0
05/11:00am 19.9 19.1 10.9 56 4.9 W 6 11 3 6 1016.9 1016.9 0.0
05/10:30am 16.9 16.8 12.0 73 2.7 ENE 4 9 2 5 1017.0 1017.0 0.0
05/10:00am 15.0 13.8 10.2 73 2.5 E 7 11 4 6 1017.0 1017.0 0.0
05/09:30am 13.2 11.9 9.3 77 2.0 NNW 6 9 3 5 1017.1 1017.1 0.0
05/09:00am 10.5 9.7 8.3 86 1.1 S 2 9 1 5 1017.4 1017.4 3.4
05/08:30am 8.6 7.2 7.1 90 0.7 WSW 4 7 2 4 1017.2 1017.2 3.4
05/08:00am 7.8 5.4 7.1 95 0.3 NE 9 13 5 7 1016.9 1016.9 3.4
05/07:30am 5.6 3.8 5.5 99 0.0 SE 4 9 2 5 1016.6 1016.6 3.4
05/07:00am 4.6 2.1 4.5 99 0.0 SW 7 11 4 6 1016.1 1016.1 3.4
05/06:30am 5.0 2.5 4.9 99 0.0 N 7 15 4 8 1015.3 1015.4 3.4
05/06:00am 5.1 2.8 5.0 99 0.0 W 6 7 3 4 1015.4 1015.5 3.4
05/05:30am 4.0 1.5 3.6 97 0.2 SSE 6 9 3 5 1015.1 1015.2 3.4
05/05:00am 4.9 2.5 4.3 96 0.3 SSW 6 7 3 4 1014.5 1014.6 3.4
05/04:30am 6.1 3.8 4.9 92 0.5 NNW 6 9 3 5 1014.2 1014.3 3.4
05/04:00am 6.4 5.4 5.7 95 0.3 CALM 0 9 0 5 1014.0 1014.1 3.4
05/03:30am 5.9 4.7 4.5 91 0.6 CALM 0 6 0 3 1013.7 1013.8 3.4
05/03:00am 7.4 6.4 5.7 89 0.8 CALM 0 0 0 0 1013.4 1013.4 3.4
05/02:30am 7.4 5.5 4.9 84 1.1 WSW 4 7 2 4 1013.3 1013.3 3.4
05/02:00am 7.7 5.4 5.7 87 0.9 SW 7 9 4 5 1013.4 1013.4 3.4
05/01:30am 7.0 4.8 5.2 88 0.8 SW 6 7 3 4 1013.5 1013.5 3.4
05/01:00am 7.1 4.6 4.8 85 1.0 SSW 7 9 4 5 1013.6 1013.6 3.4
05/12:30am 8.5 6.3 5.4 81 1.4 SW 6 7 3 4 1013.8 1013.9 3.4
05/12:00am 9.6 7.8 5.2 74 2.0 SW 4 7 2 4 1014.1 1014.2 3.4
 
Date/Time
EST
Temp
°C
App
Temp
°C
Dew
Point
°C
Rel
Hum
%
Delta-T
°C
Wind Press
QNH
hPa
Press
MSL
hPa
Rain since
9am
mm
Dir  Spd
km/h
Gust
km/h
Spd
kts
Gust
kts
04/11:30pm 10.5 9.0 5.1 69 2.5 W 2 7 1 4 1014.1 1014.2 3.4
04/11:00pm 10.9 8.7 5.4 69 2.5 WSW 6 9 3 5 1014.3 1014.4 3.4
04/10:30pm 11.1 8.8 5.6 69 2.5 ENE 7 9 4 5 1014.5 1014.6 3.4

Other formats

Comma delimited format used in spreadsheet applications
http://www.bom.gov.au/fwo/IDN60801/IDN60801.95931.axf

JavaScript Object Notation format (JSON) in row-major order
http://www.bom.gov.au/fwo/IDN60801/IDN60801.95931.json

Data quality

Most of these data are generated automatically and are frequently updated. Quality checks on data are not normally performed. It is possible for incorrect values to appear. Refer to information at About Latest Weather Observations and please check the disclaimer before using these data.